sensor_id;sensor_type;location;lat;lon;timestamp;P1;durP1;ratioP1;P2;durP2;ratioP2
76995;SDS011;65929;49.062;10.338;2023-07-24T00:00:56;6.68;;;2.90;;
76995;SDS011;65929;49.062;10.338;2023-07-24T00:01:57;8.32;;;3.40;;
76995;SDS011;65929;49.062;10.338;2023-07-24T00:02:58;7.75;;;3.65;;
76995;SDS011;65929;49.062;10.338;2023-07-24T00:03:59;7.40;;;3.08;;
76995;SDS011;65929;49.062;10.338;2023-07-24T00:04:59;7.38;;;3.50;;
76995;SDS011;65929;49.062;10.338;2023-07-24T00:06:02;5.97;;;3.08;;
76995;SDS011;65929;49.062;10.338;2023-07-24T00:07:03;9.18;;;3.63;;
76995;SDS011;65929;49.062;10.338;2023-07-24T00:08:04;6.18;;;2.97;;
76995;SDS011;65929;49.062;10.338;2023-07-24T00:09:07;6.88;;;3.10;;
76995;SDS011;65929;49.062;10.338;2023-07-24T00:10:08;6.30;;;3.17;;
76995;SDS011;65929;49.062;10.338;2023-07-24T00:11:09;7.45;;;3.65;;
76995;SDS011;65929;49.062;10.338;2023-07-24T00:12:10;6.57;;;3.00;;
76995;SDS011;65929;49.062;10.338;2023-07-24T00:13:11;7.75;;;3.42;;
76995;SDS011;65929;49.062;10.338;2023-07-24T00:14:11;7.18;;;3.53;;
76995;SDS011;65929;49.062;10.338;2023-07-24T00:15:13;6.32;;;3.50;;
76995;SDS011;65929;49.062;10.338;2023-07-24T00:16:14;8.65;;;3.50;;
76995;SDS011;65929;49.062;10.338;2023-07-24T00:17:14;6.88;;;2.55;;
76995;SDS011;65929;49.062;10.338;2023-07-24T00:18:15;7.47;;;3.30;;
76995;SDS011;65929;49.062;10.338;2023-07-24T00:19:16;7.38;;;3.10;;
76995;SDS011;65929;49.062;10.338;2023-07-24T00:20:17;8.43;;;3.60;;
76995;SDS011;65929;49.062;10.338;2023-07-24T00:21:20;6.75;;;3.10;;
76995;SDS011;65929;49.062;10.338;2023-07-24T00:22:21;8.38;;;3.97;;
76995;SDS011;65929;49.062;10.338;2023-07-24T00:23:22;7.30;;;2.92;;
76995;SDS011;65929;49.062;10.338;2023-07-24T00:24:22;6.30;;;3.17;;
76995;SDS011;65929;49.062;10.338;2023-07-24T00:25:24;7.10;;;2.72;;
76995;SDS011;65929;49.062;10.338;2023-07-24T00:26:43;9.77;;;3.75;;
76995;SDS011;65929;49.062;10.338;2023-07-24T00:27:46;5.85;;;3.17;;
76995;SDS011;65929;49.062;10.338;2023-07-24T00:28:47;7.00;;;3.45;;
76995;SDS011;65929;49.062;10.338;2023-07-24T00:29:48;9.02;;;3.50;;
76995;SDS011;65929;49.062;10.338;2023-07-24T00:30:49;7.20;;;3.60;;
76995;SDS011;65929;49.062;10.338;2023-07-24T00:31:50;6.47;;;3.63;;
76995;SDS011;65929;49.062;10.338;2023-07-24T00:32:51;5.95;;;3.33;;
76995;SDS011;65929;49.062;10.338;2023-07-24T00:33:52;10.20;;;3.60;;
76995;SDS011;65929;49.062;10.338;2023-07-24T00:34:53;6.82;;;3.55;;
76995;SDS011;65929;49.062;10.338;2023-07-24T00:35:55;8.05;;;3.70;;
76995;SDS011;65929;49.062;10.338;2023-07-24T00:36:59;8.90;;;3.90;;
76995;SDS011;65929;49.062;10.338;2023-07-24T00:38:00;10.13;;;3.97;;
76995;SDS011;65929;49.062;10.338;2023-07-24T00:39:00;6.70;;;3.17;;
76995;SDS011;65929;49.062;10.338;2023-07-24T00:40:01;6.75;;;3.10;;
76995;SDS011;65929;49.062;10.338;2023-07-24T00:41:03;7.18;;;3.30;;
76995;SDS011;65929;49.062;10.338;2023-07-24T00:42:04;6.50;;;3.25;;
76995;SDS011;65929;49.062;10.338;2023-07-24T00:43:09;7.00;;;3.35;;
76995;SDS011;65929;49.062;10.338;2023-07-24T00:44:10;8.02;;;3.35;;
76995;SDS011;65929;49.062;10.338;2023-07-24T00:45:11;8.10;;;3.60;;
76995;SDS011;65929;49.062;10.338;2023-07-24T00:46:12;5.82;;;3.10;;
76995;SDS011;65929;49.062;10.338;2023-07-24T00:47:14;8.52;;;3.75;;
76995;SDS011;65929;49.062;10.338;2023-07-24T00:48:15;8.02;;;3.63;;
76995;SDS011;65929;49.062;10.338;2023-07-24T00:49:16;9.32;;;3.97;;
76995;SDS011;65929;49.062;10.338;2023-07-24T00:50:18;8.85;;;3.70;;
76995;SDS011;65929;49.062;10.338;2023-07-24T00:51:19;7.50;;;3.33;;
76995;SDS011;65929;49.062;10.338;2023-07-24T00:52:21;7.38;;;3.45;;
76995;SDS011;65929;49.062;10.338;2023-07-24T00:53:23;7.38;;;3.72;;
76995;SDS011;65929;49.062;10.338;2023-07-24T00:54:24;8.73;;;4.07;;
76995;SDS011;65929;49.062;10.338;2023-07-24T00:55:27;6.38;;;3.13;;
76995;SDS011;65929;49.062;10.338;2023-07-24T00:56:28;9.80;;;3.95;;
76995;SDS011;65929;49.062;10.338;2023-07-24T00:57:30;7.82;;;3.72;;
76995;SDS011;65929;49.062;10.338;2023-07-24T00:58:32;6.47;;;3.22;;
76995;SDS011;65929;49.062;10.338;2023-07-24T00:59:35;8.50;;;3.83;;
76995;SDS011;65929;49.062;10.338;2023-07-24T01:00:36;10.30;;;3.78;;
76995;SDS011;65929;49.062;10.338;2023-07-24T01:01:38;9.18;;;4.28;;
76995;SDS011;65929;49.062;10.338;2023-07-24T01:02:42;9.45;;;4.22;;
76995;SDS011;65929;49.062;10.338;2023-07-24T01:03:43;11.95;;;4.20;;
76995;SDS011;65929;49.062;10.338;2023-07-24T01:04:44;8.60;;;3.40;;
76995;SDS011;65929;49.062;10.338;2023-07-24T01:05:45;9.43;;;4.03;;
76995;SDS011;65929;49.062;10.338;2023-07-24T01:06:46;8.00;;;3.90;;
76995;SDS011;65929;49.062;10.338;2023-07-24T01:07:49;10.23;;;3.95;;
76995;SDS011;65929;49.062;10.338;2023-07-24T01:08:50;9.02;;;4.20;;
76995;SDS011;65929;49.062;10.338;2023-07-24T01:09:51;8.88;;;4.20;;
76995;SDS011;65929;49.062;10.338;2023-07-24T01:10:52;10.48;;;4.47;;
76995;SDS011;65929;49.062;10.338;2023-07-24T01:11:55;7.50;;;4.00;;
76995;SDS011;65929;49.062;10.338;2023-07-24T01:12:59;9.10;;;4.38;;
76995;SDS011;65929;49.062;10.338;2023-07-24T01:14:08;7.30;;;3.97;;
76995;SDS011;65929;49.062;10.338;2023-07-24T01:15:14;10.38;;;4.45;;
76995;SDS011;65929;49.062;10.338;2023-07-24T01:16:21;9.48;;;3.70;;
76995;SDS011;65929;49.062;10.338;2023-07-24T01:17:25;8.98;;;4.25;;
76995;SDS011;65929;49.062;10.338;2023-07-24T01:18:31;9.05;;;3.70;;
76995;SDS011;65929;49.062;10.338;2023-07-24T01:19:35;9.27;;;3.83;;
76995;SDS011;65929;49.062;10.338;2023-07-24T01:20:42;8.15;;;3.80;;
76995;SDS011;65929;49.062;10.338;2023-07-24T01:21:50;7.13;;;3.85;;
76995;SDS011;65929;49.062;10.338;2023-07-24T01:23:04;8.55;;;3.88;;
76995;SDS011;65929;49.062;10.338;2023-07-24T01:24:24;9.38;;;4.00;;
76995;SDS011;65929;49.062;10.338;2023-07-24T01:25:31;8.57;;;4.50;;
76995;SDS011;65929;49.062;10.338;2023-07-24T01:26:37;9.00;;;4.15;;
76995;SDS011;65929;49.062;10.338;2023-07-24T01:27:40;9.95;;;3.97;;
76995;SDS011;65929;49.062;10.338;2023-07-24T01:28:42;10.38;;;4.45;;
76995;SDS011;65929;49.062;10.338;2023-07-24T01:29:42;11.35;;;5.15;;
76995;SDS011;65929;49.062;10.338;2023-07-24T01:30:43;9.68;;;4.32;;
76995;SDS011;65929;49.062;10.338;2023-07-24T01:31:44;11.07;;;4.25;;
76995;SDS011;65929;49.062;10.338;2023-07-24T01:32:45;10.25;;;4.40;;
76995;SDS011;65929;49.062;10.338;2023-07-24T01:33:46;10.15;;;4.85;;
76995;SDS011;65929;49.062;10.338;2023-07-24T01:34:47;8.90;;;3.90;;
76995;SDS011;65929;49.062;10.338;2023-07-24T01:35:48;9.32;;;4.57;;
76995;SDS011;65929;49.062;10.338;2023-07-24T01:36:51;10.57;;;4.95;;
76995;SDS011;65929;49.062;10.338;2023-07-24T01:37:52;9.90;;;4.32;;
76995;SDS011;65929;49.062;10.338;2023-07-24T01:38:54;7.82;;;3.83;;
76995;SDS011;65929;49.062;10.338;2023-07-24T01:39:55;7.45;;;4.20;;
76995;SDS011;65929;49.062;10.338;2023-07-24T01:40:56;9.30;;;4.03;;
76995;SDS011;65929;49.062;10.338;2023-07-24T01:41:59;9.32;;;4.35;;
76995;SDS011;65929;49.062;10.338;2023-07-24T01:43:00;10.38;;;4.93;;
76995;SDS011;65929;49.062;10.338;2023-07-24T01:44:00;9.32;;;4.63;;
76995;SDS011;65929;49.062;10.338;2023-07-24T01:45:02;7.60;;;4.10;;
76995;SDS011;65929;49.062;10.338;2023-07-24T01:46:04;7.80;;;4.07;;
76995;SDS011;65929;49.062;10.338;2023-07-24T01:47:05;8.57;;;4.30;;
76995;SDS011;65929;49.062;10.338;2023-07-24T01:48:06;10.27;;;4.53;;
76995;SDS011;65929;49.062;10.338;2023-07-24T01:49:06;9.00;;;4.10;;
76995;SDS011;65929;49.062;10.338;2023-07-24T01:50:07;8.88;;;4.13;;
76995;SDS011;65929;49.062;10.338;2023-07-24T01:51:09;11.07;;;4.47;;
76995;SDS011;65929;49.062;10.338;2023-07-24T01:52:09;9.20;;;4.25;;
76995;SDS011;65929;49.062;10.338;2023-07-24T01:53:10;9.82;;;4.70;;
76995;SDS011;65929;49.062;10.338;2023-07-24T01:54:11;12.85;;;4.70;;
76995;SDS011;65929;49.062;10.338;2023-07-24T01:55:12;7.30;;;4.13;;
76995;SDS011;65929;49.062;10.338;2023-07-24T01:56:13;8.70;;;4.43;;
76995;SDS011;65929;49.062;10.338;2023-07-24T01:57:15;10.13;;;4.45;;
76995;SDS011;65929;49.062;10.338;2023-07-24T01:58:16;10.38;;;4.32;;
76995;SDS011;65929;49.062;10.338;2023-07-24T01:59:16;8.88;;;4.47;;
76995;SDS011;65929;49.062;10.338;2023-07-24T02:00:17;9.23;;;4.20;;
76995;SDS011;65929;49.062;10.338;2023-07-24T02:01:18;9.00;;;5.22;;
76995;SDS011;65929;49.062;10.338;2023-07-24T02:02:19;8.55;;;5.10;;
76995;SDS011;65929;49.062;10.338;2023-07-24T02:03:20;8.60;;;4.32;;
76995;SDS011;65929;49.062;10.338;2023-07-24T02:04:21;9.75;;;4.65;;
76995;SDS011;65929;49.062;10.338;2023-07-24T02:05:22;8.07;;;4.53;;
76995;SDS011;65929;49.062;10.338;2023-07-24T02:06:23;8.18;;;3.97;;
76995;SDS011;65929;49.062;10.338;2023-07-24T02:07:24;6.88;;;3.85;;
76995;SDS011;65929;49.062;10.338;2023-07-24T02:08:24;8.38;;;4.13;;
76995;SDS011;65929;49.062;10.338;2023-07-24T02:09:25;8.05;;;3.80;;
76995;SDS011;65929;49.062;10.338;2023-07-24T02:10:26;9.13;;;4.47;;
76995;SDS011;65929;49.062;10.338;2023-07-24T02:11:27;9.35;;;3.90;;
76995;SDS011;65929;49.062;10.338;2023-07-24T02:12:29;8.82;;;4.13;;
76995;SDS011;65929;49.062;10.338;2023-07-24T02:13:30;8.18;;;4.35;;
76995;SDS011;65929;49.062;10.338;2023-07-24T02:14:31;8.10;;;4.40;;
76995;SDS011;65929;49.062;10.338;2023-07-24T02:15:32;10.48;;;4.53;;
76995;SDS011;65929;49.062;10.338;2023-07-24T02:16:32;8.88;;;3.90;;
76995;SDS011;65929;49.062;10.338;2023-07-24T02:17:33;8.65;;;4.30;;
76995;SDS011;65929;49.062;10.338;2023-07-24T02:18:34;9.57;;;4.43;;
76995;SDS011;65929;49.062;10.338;2023-07-24T02:19:35;10.13;;;4.80;;
76995;SDS011;65929;49.062;10.338;2023-07-24T02:20:36;9.20;;;4.63;;
76995;SDS011;65929;49.062;10.338;2023-07-24T02:21:37;11.80;;;4.45;;
76995;SDS011;65929;49.062;10.338;2023-07-24T02:22:38;8.15;;;4.03;;
76995;SDS011;65929;49.062;10.338;2023-07-24T02:23:39;8.52;;;4.80;;
76995;SDS011;65929;49.062;10.338;2023-07-24T02:24:39;10.38;;;4.53;;
76995;SDS011;65929;49.062;10.338;2023-07-24T02:25:40;8.65;;;4.65;;
76995;SDS011;65929;49.062;10.338;2023-07-24T02:26:43;7.85;;;4.03;;
76995;SDS011;65929;49.062;10.338;2023-07-24T02:27:45;10.93;;;4.80;;
76995;SDS011;65929;49.062;10.338;2023-07-24T02:28:46;10.35;;;4.80;;
76995;SDS011;65929;49.062;10.338;2023-07-24T02:29:46;9.80;;;5.07;;
76995;SDS011;65929;49.062;10.338;2023-07-24T02:30:47;10.10;;;4.53;;
76995;SDS011;65929;49.062;10.338;2023-07-24T02:31:49;8.65;;;4.88;;
76995;SDS011;65929;49.062;10.338;2023-07-24T02:32:50;9.98;;;4.32;;
76995;SDS011;65929;49.062;10.338;2023-07-24T02:33:51;8.63;;;4.22;;
76995;SDS011;65929;49.062;10.338;2023-07-24T02:34:52;9.18;;;4.60;;
76995;SDS011;65929;49.062;10.338;2023-07-24T02:35:53;9.07;;;4.25;;
76995;SDS011;65929;49.062;10.338;2023-07-24T02:36:54;10.95;;;5.00;;
76995;SDS011;65929;49.062;10.338;2023-07-24T02:37:55;8.50;;;4.20;;
76995;SDS011;65929;49.062;10.338;2023-07-24T02:38:55;9.02;;;4.68;;
76995;SDS011;65929;49.062;10.338;2023-07-24T02:39:56;10.02;;;4.82;;
76995;SDS011;65929;49.062;10.338;2023-07-24T02:40:57;8.77;;;4.88;;
76995;SDS011;65929;49.062;10.338;2023-07-24T02:41:58;8.82;;;4.68;;
76995;SDS011;65929;49.062;10.338;2023-07-24T02:43:00;6.65;;;4.30;;
76995;SDS011;65929;49.062;10.338;2023-07-24T02:44:02;10.90;;;4.85;;
76995;SDS011;65929;49.062;10.338;2023-07-24T02:45:03;8.93;;;4.47;;
76995;SDS011;65929;49.062;10.338;2023-07-24T02:46:05;9.85;;;4.78;;
76995;SDS011;65929;49.062;10.338;2023-07-24T02:47:06;8.57;;;4.20;;
76995;SDS011;65929;49.062;10.338;2023-07-24T02:48:07;10.52;;;4.45;;
76995;SDS011;65929;49.062;10.338;2023-07-24T02:49:07;9.07;;;4.60;;
76995;SDS011;65929;49.062;10.338;2023-07-24T02:50:08;10.30;;;5.05;;
76995;SDS011;65929;49.062;10.338;2023-07-24T02:51:09;8.48;;;4.30;;
76995;SDS011;65929;49.062;10.338;2023-07-24T02:52:10;9.40;;;4.70;;
76995;SDS011;65929;49.062;10.338;2023-07-24T02:53:11;9.98;;;4.85;;
76995;SDS011;65929;49.062;10.338;2023-07-24T02:54:12;10.05;;;4.80;;
76995;SDS011;65929;49.062;10.338;2023-07-24T02:55:13;10.73;;;4.55;;
76995;SDS011;65929;49.062;10.338;2023-07-24T02:56:13;10.27;;;4.63;;
76995;SDS011;65929;49.062;10.338;2023-07-24T02:57:14;10.27;;;4.78;;
76995;SDS011;65929;49.062;10.338;2023-07-24T02:58:17;7.85;;;4.35;;
76995;SDS011;65929;49.062;10.338;2023-07-24T02:59:17;9.30;;;5.10;;
76995;SDS011;65929;49.062;10.338;2023-07-24T03:00:18;8.38;;;4.50;;
76995;SDS011;65929;49.062;10.338;2023-07-24T03:01:19;8.48;;;4.68;;
76995;SDS011;65929;49.062;10.338;2023-07-24T03:02:20;9.10;;;4.82;;
76995;SDS011;65929;49.062;10.338;2023-07-24T03:03:21;8.55;;;4.65;;
76995;SDS011;65929;49.062;10.338;2023-07-24T03:04:23;10.43;;;4.80;;
76995;SDS011;65929;49.062;10.338;2023-07-24T03:05:29;8.90;;;4.88;;
76995;SDS011;65929;49.062;10.338;2023-07-24T03:06:30;8.70;;;4.35;;
76995;SDS011;65929;49.062;10.338;2023-07-24T03:07:31;9.88;;;4.43;;
76995;SDS011;65929;49.062;10.338;2023-07-24T03:08:33;8.93;;;4.13;;
76995;SDS011;65929;49.062;10.338;2023-07-24T03:09:34;8.95;;;4.85;;
76995;SDS011;65929;49.062;10.338;2023-07-24T03:10:34;10.02;;;4.85;;
76995;SDS011;65929;49.062;10.338;2023-07-24T03:11:35;9.65;;;4.93;;
76995;SDS011;65929;49.062;10.338;2023-07-24T03:12:36;9.57;;;4.70;;
76995;SDS011;65929;49.062;10.338;2023-07-24T03:13:38;9.82;;;4.35;;
76995;SDS011;65929;49.062;10.338;2023-07-24T03:14:41;8.90;;;4.15;;
76995;SDS011;65929;49.062;10.338;2023-07-24T03:15:41;10.82;;;4.78;;
76995;SDS011;65929;49.062;10.338;2023-07-24T03:16:42;9.70;;;4.97;;
76995;SDS011;65929;49.062;10.338;2023-07-24T03:17:43;9.57;;;5.32;;
76995;SDS011;65929;49.062;10.338;2023-07-24T03:18:44;8.75;;;4.85;;
76995;SDS011;65929;49.062;10.338;2023-07-24T03:19:45;10.25;;;5.63;;
76995;SDS011;65929;49.062;10.338;2023-07-24T03:20:46;8.40;;;4.93;;
76995;SDS011;65929;49.062;10.338;2023-07-24T03:21:46;9.63;;;5.20;;
76995;SDS011;65929;49.062;10.338;2023-07-24T03:22:47;9.13;;;4.97;;
76995;SDS011;65929;49.062;10.338;2023-07-24T03:23:48;8.38;;;4.30;;
76995;SDS011;65929;49.062;10.338;2023-07-24T03:24:49;9.02;;;5.05;;
76995;SDS011;65929;49.062;10.338;2023-07-24T03:25:50;8.95;;;4.60;;
76995;SDS011;65929;49.062;10.338;2023-07-24T03:26:51;11.10;;;5.57;;
76995;SDS011;65929;49.062;10.338;2023-07-24T03:27:51;9.85;;;4.45;;
76995;SDS011;65929;49.062;10.338;2023-07-24T03:28:54;9.95;;;4.97;;
76995;SDS011;65929;49.062;10.338;2023-07-24T03:29:54;8.55;;;4.35;;
76995;SDS011;65929;49.062;10.338;2023-07-24T03:30:55;8.20;;;4.78;;
76995;SDS011;65929;49.062;10.338;2023-07-24T03:31:56;8.70;;;4.85;;
76995;SDS011;65929;49.062;10.338;2023-07-24T03:32:57;10.15;;;4.93;;
76995;SDS011;65929;49.062;10.338;2023-07-24T03:33:58;8.80;;;4.70;;
76995;SDS011;65929;49.062;10.338;2023-07-24T03:34:59;8.95;;;4.65;;
76995;SDS011;65929;49.062;10.338;2023-07-24T03:36:00;9.07;;;4.90;;
76995;SDS011;65929;49.062;10.338;2023-07-24T03:37:00;11.50;;;5.30;;
76995;SDS011;65929;49.062;10.338;2023-07-24T03:38:01;11.88;;;5.40;;
76995;SDS011;65929;49.062;10.338;2023-07-24T03:39:02;9.30;;;4.85;;
76995;SDS011;65929;49.062;10.338;2023-07-24T03:40:03;10.75;;;5.53;;
76995;SDS011;65929;49.062;10.338;2023-07-24T03:41:05;10.70;;;4.88;;
76995;SDS011;65929;49.062;10.338;2023-07-24T03:42:06;9.25;;;5.38;;
76995;SDS011;65929;49.062;10.338;2023-07-24T03:43:09;8.77;;;4.82;;
76995;SDS011;65929;49.062;10.338;2023-07-24T03:44:11;8.85;;;4.63;;
76995;SDS011;65929;49.062;10.338;2023-07-24T03:45:12;10.85;;;5.07;;
76995;SDS011;65929;49.062;10.338;2023-07-24T03:46:13;10.43;;;4.88;;
76995;SDS011;65929;49.062;10.338;2023-07-24T03:47:14;10.52;;;5.00;;
76995;SDS011;65929;49.062;10.338;2023-07-24T03:48:14;9.02;;;5.15;;
76995;SDS011;65929;49.062;10.338;2023-07-24T03:49:15;9.82;;;5.10;;
76995;SDS011;65929;49.062;10.338;2023-07-24T03:50:16;8.93;;;4.53;;
76995;SDS011;65929;49.062;10.338;2023-07-24T03:51:17;8.02;;;4.75;;
76995;SDS011;65929;49.062;10.338;2023-07-24T03:52:18;7.95;;;4.70;;
76995;SDS011;65929;49.062;10.338;2023-07-24T03:53:19;8.82;;;5.13;;
76995;SDS011;65929;49.062;10.338;2023-07-24T03:54:19;11.30;;;5.38;;
76995;SDS011;65929;49.062;10.338;2023-07-24T03:55:20;10.77;;;5.68;;
76995;SDS011;65929;49.062;10.338;2023-07-24T03:56:21;8.25;;;4.93;;
76995;SDS011;65929;49.062;10.338;2023-07-24T03:57:22;10.68;;;5.20;;
76995;SDS011;65929;49.062;10.338;2023-07-24T03:58:23;11.13;;;5.60;;
76995;SDS011;65929;49.062;10.338;2023-07-24T03:59:25;9.18;;;5.13;;
76995;SDS011;65929;49.062;10.338;2023-07-24T04:00:26;10.93;;;5.40;;
76995;SDS011;65929;49.062;10.338;2023-07-24T04:01:27;12.45;;;4.97;;
76995;SDS011;65929;49.062;10.338;2023-07-24T04:02:28;8.43;;;4.68;;
76995;SDS011;65929;49.062;10.338;2023-07-24T04:03:29;11.63;;;5.80;;
76995;SDS011;65929;49.062;10.338;2023-07-24T04:04:30;11.45;;;5.40;;
76995;SDS011;65929;49.062;10.338;2023-07-24T04:05:31;12.02;;;5.00;;
76995;SDS011;65929;49.062;10.338;2023-07-24T04:06:34;8.23;;;4.97;;
76995;SDS011;65929;49.062;10.338;2023-07-24T04:07:34;9.45;;;5.38;;
76995;SDS011;65929;49.062;10.338;2023-07-24T04:08:37;9.45;;;5.03;;
76995;SDS011;65929;49.062;10.338;2023-07-24T04:09:37;9.93;;;5.50;;
76995;SDS011;65929;49.062;10.338;2023-07-24T04:10:38;9.70;;;4.85;;
76995;SDS011;65929;49.062;10.338;2023-07-24T04:11:39;10.82;;;5.20;;
76995;SDS011;65929;49.062;10.338;2023-07-24T04:12:40;11.98;;;5.57;;
76995;SDS011;65929;49.062;10.338;2023-07-24T04:13:41;8.77;;;4.97;;
76995;SDS011;65929;49.062;10.338;2023-07-24T04:14:43;10.73;;;5.32;;
76995;SDS011;65929;49.062;10.338;2023-07-24T04:15:44;10.57;;;5.20;;
76995;SDS011;65929;49.062;10.338;2023-07-24T04:16:45;10.93;;;5.60;;
76995;SDS011;65929;49.062;10.338;2023-07-24T04:17:46;10.23;;;5.25;;
76995;SDS011;65929;49.062;10.338;2023-07-24T04:18:46;9.60;;;4.85;;
76995;SDS011;65929;49.062;10.338;2023-07-24T04:19:47;9.15;;;4.65;;
76995;SDS011;65929;49.062;10.338;2023-07-24T04:20:48;9.15;;;4.28;;
76995;SDS011;65929;49.062;10.338;2023-07-24T04:21:49;9.85;;;4.93;;
76995;SDS011;65929;49.062;10.338;2023-07-24T04:22:50;10.40;;;4.78;;
76995;SDS011;65929;49.062;10.338;2023-07-24T04:23:51;10.05;;;4.57;;
76995;SDS011;65929;49.062;10.338;2023-07-24T04:24:51;8.77;;;4.97;;
76995;SDS011;65929;49.062;10.338;2023-07-24T04:25:52;8.95;;;4.65;;
76995;SDS011;65929;49.062;10.338;2023-07-24T04:26:53;8.77;;;4.60;;
76995;SDS011;65929;49.062;10.338;2023-07-24T04:27:54;8.35;;;4.28;;
76995;SDS011;65929;49.062;10.338;2023-07-24T04:28:55;8.88;;;4.38;;
76995;SDS011;65929;49.062;10.338;2023-07-24T04:29:57;10.13;;;4.70;;
76995;SDS011;65929;49.062;10.338;2023-07-24T04:30:59;10.05;;;4.55;;
76995;SDS011;65929;49.062;10.338;2023-07-24T04:32:00;11.05;;;3.67;;
76995;SDS011;65929;49.062;10.338;2023-07-24T04:33:01;8.52;;;4.50;;
76995;SDS011;65929;49.062;10.338;2023-07-24T04:34:02;9.52;;;4.45;;
76995;SDS011;65929;49.062;10.338;2023-07-24T04:35:03;10.70;;;4.82;;
76995;SDS011;65929;49.062;10.338;2023-07-24T04:36:05;8.10;;;4.07;;
76995;SDS011;65929;49.062;10.338;2023-07-24T04:37:05;8.48;;;4.03;;
76995;SDS011;65929;49.062;10.338;2023-07-24T04:38:06;10.52;;;4.80;;
76995;SDS011;65929;49.062;10.338;2023-07-24T04:39:07;9.07;;;4.10;;
76995;SDS011;65929;49.062;10.338;2023-07-24T04:40:08;9.55;;;4.18;;
76995;SDS011;65929;49.062;10.338;2023-07-24T04:41:10;9.82;;;4.60;;
76995;SDS011;65929;49.062;10.338;2023-07-24T04:42:11;8.63;;;3.95;;
76995;SDS011;65929;49.062;10.338;2023-07-24T04:43:12;8.60;;;4.75;;
76995;SDS011;65929;49.062;10.338;2023-07-24T04:44:13;7.85;;;3.97;;
76995;SDS011;65929;49.062;10.338;2023-07-24T04:45:15;9.27;;;4.72;;
76995;SDS011;65929;49.062;10.338;2023-07-24T04:46:16;9.18;;;3.97;;
76995;SDS011;65929;49.062;10.338;2023-07-24T04:47:17;6.53;;;4.00;;
76995;SDS011;65929;49.062;10.338;2023-07-24T04:48:18;9.38;;;4.60;;
76995;SDS011;65929;49.062;10.338;2023-07-24T04:49:19;8.40;;;4.43;;
76995;SDS011;65929;49.062;10.338;2023-07-24T04:50:20;9.00;;;4.60;;
76995;SDS011;65929;49.062;10.338;2023-07-24T04:51:20;8.60;;;4.10;;
76995;SDS011;65929;49.062;10.338;2023-07-24T04:52:21;10.07;;;4.28;;
76995;SDS011;65929;49.062;10.338;2023-07-24T04:53:22;9.80;;;5.03;;
76995;SDS011;65929;49.062;10.338;2023-07-24T04:54:23;9.07;;;4.75;;
76995;SDS011;65929;49.062;10.338;2023-07-24T04:55:24;9.90;;;4.05;;
76995;SDS011;65929;49.062;10.338;2023-07-24T04:56:25;9.65;;;4.35;;
76995;SDS011;65929;49.062;10.338;2023-07-24T04:57:26;8.38;;;4.32;;
76995;SDS011;65929;49.062;10.338;2023-07-24T04:58:27;7.90;;;4.20;;
76995;SDS011;65929;49.062;10.338;2023-07-24T04:59:27;8.40;;;4.43;;
76995;SDS011;65929;49.062;10.338;2023-07-24T05:00:30;10.02;;;4.82;;
76995;SDS011;65929;49.062;10.338;2023-07-24T05:01:31;7.93;;;4.00;;
76995;SDS011;65929;49.062;10.338;2023-07-24T05:02:32;8.68;;;4.20;;
76995;SDS011;65929;49.062;10.338;2023-07-24T05:03:32;10.98;;;4.30;;
76995;SDS011;65929;49.062;10.338;2023-07-24T05:04:33;8.57;;;4.10;;
76995;SDS011;65929;49.062;10.338;2023-07-24T05:05:34;7.28;;;4.10;;
76995;SDS011;65929;49.062;10.338;2023-07-24T05:06:35;8.35;;;4.13;;
76995;SDS011;65929;49.062;10.338;2023-07-24T05:07:38;7.85;;;4.35;;
76995;SDS011;65929;49.062;10.338;2023-07-24T05:08:39;10.88;;;4.47;;
76995;SDS011;65929;49.062;10.338;2023-07-24T05:09:40;8.15;;;4.43;;
76995;SDS011;65929;49.062;10.338;2023-07-24T05:10:40;7.78;;;4.13;;
76995;SDS011;65929;49.062;10.338;2023-07-24T05:11:41;8.27;;;4.25;;
76995;SDS011;65929;49.062;10.338;2023-07-24T05:12:44;9.68;;;4.68;;
76995;SDS011;65929;49.062;10.338;2023-07-24T05:13:45;8.70;;;4.03;;
76995;SDS011;65929;49.062;10.338;2023-07-24T05:14:46;9.07;;;4.15;;
76995;SDS011;65929;49.062;10.338;2023-07-24T05:15:48;8.02;;;4.57;;
76995;SDS011;65929;49.062;10.338;2023-07-24T05:16:49;7.60;;;3.92;;
76995;SDS011;65929;49.062;10.338;2023-07-24T05:17:50;8.75;;;4.05;;
76995;SDS011;65929;49.062;10.338;2023-07-24T05:18:51;9.43;;;4.80;;
76995;SDS011;65929;49.062;10.338;2023-07-24T05:19:52;9.85;;;4.07;;
76995;SDS011;65929;49.062;10.338;2023-07-24T05:20:53;7.53;;;4.13;;
76995;SDS011;65929;49.062;10.338;2023-07-24T05:21:53;9.05;;;4.30;;
76995;SDS011;65929;49.062;10.338;2023-07-24T05:22:54;8.13;;;3.88;;
76995;SDS011;65929;49.062;10.338;2023-07-24T05:23:55;6.32;;;3.63;;
76995;SDS011;65929;49.062;10.338;2023-07-24T05:24:56;9.15;;;4.40;;
76995;SDS011;65929;49.062;10.338;2023-07-24T05:25:57;9.35;;;4.07;;
76995;SDS011;65929;49.062;10.338;2023-07-24T05:26:58;8.07;;;3.95;;
76995;SDS011;65929;49.062;10.338;2023-07-24T05:27:59;9.38;;;4.55;;
76995;SDS011;65929;49.062;10.338;2023-07-24T05:29:00;7.97;;;4.57;;
76995;SDS011;65929;49.062;10.338;2023-07-24T05:30:01;9.73;;;4.53;;
76995;SDS011;65929;49.062;10.338;2023-07-24T05:31:04;9.20;;;4.30;;
76995;SDS011;65929;49.062;10.338;2023-07-24T05:32:06;7.75;;;4.07;;
76995;SDS011;65929;49.062;10.338;2023-07-24T05:33:07;8.20;;;4.22;;
76995;SDS011;65929;49.062;10.338;2023-07-24T05:34:10;8.13;;;3.97;;
76995;SDS011;65929;49.062;10.338;2023-07-24T05:35:11;8.90;;;4.20;;
76995;SDS011;65929;49.062;10.338;2023-07-24T05:36:12;7.03;;;3.80;;
76995;SDS011;65929;49.062;10.338;2023-07-24T05:37:13;8.18;;;4.32;;
76995;SDS011;65929;49.062;10.338;2023-07-24T05:38:14;9.75;;;4.20;;
76995;SDS011;65929;49.062;10.338;2023-07-24T05:39:15;8.85;;;4.28;;
76995;SDS011;65929;49.062;10.338;2023-07-24T05:40:16;9.32;;;3.92;;
76995;SDS011;65929;49.062;10.338;2023-07-24T05:41:16;8.32;;;4.63;;
76995;SDS011;65929;49.062;10.338;2023-07-24T05:42:17;8.02;;;4.15;;
76995;SDS011;65929;49.062;10.338;2023-07-24T05:43:18;9.32;;;4.35;;
76995;SDS011;65929;49.062;10.338;2023-07-24T05:44:19;9.02;;;4.25;;
76995;SDS011;65929;49.062;10.338;2023-07-24T05:45:20;7.97;;;4.30;;
76995;SDS011;65929;49.062;10.338;2023-07-24T05:46:22;8.98;;;4.20;;
76995;SDS011;65929;49.062;10.338;2023-07-24T05:47:23;10.80;;;4.50;;
76995;SDS011;65929;49.062;10.338;2023-07-24T05:48:24;10.68;;;4.68;;
76995;SDS011;65929;49.062;10.338;2023-07-24T05:49:25;9.18;;;4.40;;
76995;SDS011;65929;49.062;10.338;2023-07-24T05:50:29;8.30;;;4.65;;
76995;SDS011;65929;49.062;10.338;2023-07-24T05:51:30;9.70;;;4.25;;
76995;SDS011;65929;49.062;10.338;2023-07-24T05:52:31;9.63;;;4.60;;
76995;SDS011;65929;49.062;10.338;2023-07-24T05:53:31;10.00;;;5.15;;
76995;SDS011;65929;49.062;10.338;2023-07-24T05:54:32;11.27;;;4.82;;
76995;SDS011;65929;49.062;10.338;2023-07-24T05:55:33;9.38;;;4.55;;
76995;SDS011;65929;49.062;10.338;2023-07-24T05:56:34;11.13;;;4.80;;
76995;SDS011;65929;49.062;10.338;2023-07-24T05:57:35;11.02;;;4.78;;
76995;SDS011;65929;49.062;10.338;2023-07-24T05:58:36;9.82;;;4.63;;
76995;SDS011;65929;49.062;10.338;2023-07-24T05:59:37;9.15;;;4.50;;
76995;SDS011;65929;49.062;10.338;2023-07-24T06:00:38;8.48;;;4.35;;
76995;SDS011;65929;49.062;10.338;2023-07-24T06:01:40;9.20;;;4.57;;
76995;SDS011;65929;49.062;10.338;2023-07-24T06:02:41;11.55;;;4.55;;
76995;SDS011;65929;49.062;10.338;2023-07-24T06:03:42;8.75;;;4.40;;